createdAt,value
2022-12-18T00:00:31.240Z,-7.32
2022-12-18T00:01:31.282Z,-7.32
2022-12-18T00:02:31.282Z,-7.34
2022-12-18T00:03:31.415Z,-7.39
2022-12-18T00:04:31.280Z,-7.37
2022-12-18T00:05:31.196Z,-7.39
2022-12-18T00:06:31.376Z,-7.39
2022-12-18T00:07:31.165Z,-7.41
2022-12-18T00:08:31.159Z,-7.42
2022-12-18T00:09:39.785Z,-7.50
2022-12-18T00:10:32.172Z,-7.49
2022-12-18T00:11:31.125Z,-7.49
2022-12-18T00:12:31.126Z,-7.53
2022-12-18T00:13:31.101Z,-7.56
2022-12-18T00:14:31.096Z,-7.57
2022-12-18T00:15:31.108Z,-7.59
2022-12-18T00:16:31.316Z,-7.64
2022-12-18T00:17:31.264Z,-7.60
2022-12-18T00:18:31.055Z,-7.59
2022-12-18T00:19:31.039Z,-7.67
2022-12-18T00:20:31.029Z,-7.73
2022-12-18T00:21:31.031Z,-7.78
2022-12-18T00:22:31.014Z,-7.84
2022-12-18T00:23:30.997Z,-7.88
2022-12-18T00:24:30.987Z,-7.89
2022-12-18T00:25:30.976Z,-7.94
2022-12-18T00:26:30.971Z,-7.96
2022-12-18T00:27:30.957Z,-8.04
2022-12-18T00:28:30.946Z,-8.07
2022-12-18T00:29:30.934Z,-8.10
2022-12-18T00:30:30.925Z,-8.07
2022-12-18T00:31:31.031Z,-7.99
2022-12-18T00:32:30.902Z,-8.07
2022-12-18T00:33:30.895Z,-8.08
2022-12-18T00:34:30.883Z,-8.13
2022-12-18T00:35:30.868Z,-8.14
2022-12-18T00:36:30.865Z,-8.16
2022-12-18T00:37:30.854Z,-8.17
2022-12-18T00:38:30.842Z,-8.21
2022-12-18T00:39:30.827Z,-8.24
2022-12-18T00:40:30.818Z,-8.24
2022-12-18T00:41:30.816Z,-8.25
2022-12-18T00:42:30.816Z,-8.28
2022-12-18T00:43:30.784Z,-8.28
2022-12-18T00:44:30.783Z,-8.31
2022-12-18T00:45:30.853Z,-8.34
2022-12-18T00:46:30.758Z,-8.31
2022-12-18T00:47:30.765Z,-8.29
2022-12-18T00:48:30.733Z,-8.28
2022-12-18T00:49:30.723Z,-8.24
2022-12-18T00:50:30.720Z,-8.24
2022-12-18T00:51:30.698Z,-8.22
2022-12-18T00:52:30.691Z,-8.22
2022-12-18T00:53:58.175Z,-8.16
2022-12-18T00:55:03.065Z,-8.10
2022-12-18T00:55:58.152Z,-8.07
2022-12-18T00:56:58.141Z,-8.07
2022-12-18T00:57:58.127Z,-8.04
2022-12-18T00:58:58.123Z,-8.03
2022-12-18T00:59:58.110Z,-7.95
2022-12-18T01:00:58.157Z,-7.94
2022-12-18T01:01:58.179Z,-7.91
2022-12-18T01:02:58.168Z,-7.91
2022-12-18T01:03:58.065Z,-7.95
2022-12-18T01:04:58.058Z,-7.92
2022-12-18T01:05:58.043Z,-7.96
2022-12-18T01:06:58.032Z,-7.94
2022-12-18T01:07:58.021Z,-7.95
2022-12-18T01:08:58.009Z,-7.99
2022-12-18T01:09:58.004Z,-8.03
2022-12-18T01:10:57.989Z,-8.06
2022-12-18T01:11:57.978Z,-8.08
2022-12-18T01:12:57.967Z,-8.10
2022-12-18T01:13:57.956Z,-8.08
2022-12-18T01:14:57.944Z,-8.08
2022-12-18T01:15:57.985Z,-8.14
2022-12-18T01:16:57.930Z,-8.17
2022-12-18T01:17:57.914Z,-8.21
2022-12-18T01:18:57.927Z,-8.25
2022-12-18T01:19:57.891Z,-8.25
2022-12-18T01:20:57.892Z,-8.27
2022-12-18T01:21:57.870Z,-8.27
2022-12-18T01:22:57.861Z,-8.27
2022-12-18T01:23:57.846Z,-8.28
2022-12-18T01:24:57.839Z,-8.27
2022-12-18T01:25:57.831Z,-8.28
2022-12-18T01:26:57.820Z,-8.28
2022-12-18T01:27:57.801Z,-8.32
2022-12-18T01:28:57.793Z,-8.37
2022-12-18T01:29:57.782Z,-8.31
2022-12-18T01:30:57.778Z,-8.32
2022-12-18T01:31:57.817Z,-8.31
2022-12-18T01:32:57.751Z,-8.27
2022-12-18T01:33:57.738Z,-8.28
2022-12-18T01:34:57.733Z,-8.27
2022-12-18T01:35:57.717Z,-8.28
2022-12-18T01:36:57.708Z,-8.28
2022-12-18T01:37:57.697Z,-8.28
2022-12-18T01:38:57.692Z,-8.31
2022-12-18T01:39:57.675Z,-8.32
2022-12-18T01:40:57.671Z,-8.32
2022-12-18T01:41:57.653Z,-8.34
2022-12-18T01:42:57.644Z,-8.29
2022-12-18T01:43:57.636Z,-8.35
2022-12-18T01:44:57.623Z,-8.35
2022-12-18T01:45:57.671Z,-8.34
2022-12-18T01:46:57.598Z,-8.39
2022-12-18T01:47:57.591Z,-8.40
2022-12-18T01:48:57.577Z,-8.42
2022-12-18T01:49:57.570Z,-8.43
2022-12-18T01:50:57.561Z,-8.43
2022-12-18T01:51:57.546Z,-8.42
2022-12-18T01:52:57.538Z,-8.45
2022-12-18T01:53:57.526Z,-8.46
2022-12-18T01:54:57.532Z,-8.43
2022-12-18T01:55:57.504Z,-8.43
2022-12-18T01:56:57.494Z,-8.45
2022-12-18T01:57:57.481Z,-8.42
2022-12-18T01:58:57.476Z,-8.50
2022-12-18T01:59:57.488Z,-8.49
2022-12-18T02:00:57.567Z,-8.49
2022-12-18T02:01:57.669Z,-8.53
2022-12-18T02:02:57.656Z,-8.60
2022-12-18T02:03:57.438Z,-8.63
2022-12-18T02:04:57.410Z,-8.64
2022-12-18T02:05:57.396Z,-8.58
2022-12-18T02:06:57.388Z,-8.53
2022-12-18T02:07:57.373Z,-8.52
2022-12-18T02:08:57.371Z,-8.52
2022-12-18T02:09:57.353Z,-8.58
2022-12-18T02:10:57.348Z,-8.63
2022-12-18T02:11:57.336Z,-8.63
2022-12-18T02:12:57.444Z,-8.68
2022-12-18T02:13:57.308Z,-8.74
2022-12-18T02:14:57.300Z,-8.74
2022-12-18T02:15:57.293Z,-8.70
2022-12-18T02:16:57.349Z,-8.64
2022-12-18T02:17:57.265Z,-8.64
2022-12-18T02:18:57.262Z,-8.63
2022-12-18T02:19:57.245Z,-8.61
2022-12-18T02:20:57.236Z,-8.66
2022-12-18T02:21:57.226Z,-8.68
2022-12-18T02:22:57.214Z,-8.73
2022-12-18T02:23:57.202Z,-8.71
2022-12-18T02:24:57.192Z,-8.70
2022-12-18T02:25:57.187Z,-8.68
2022-12-18T02:26:57.171Z,-8.67
2022-12-18T02:27:57.162Z,-8.61
2022-12-18T02:28:57.272Z,-8.61
2022-12-18T02:29:58.727Z,-8.61
2022-12-18T02:30:57.223Z,-8.60
2022-12-18T02:31:57.118Z,-8.63
2022-12-18T02:32:57.115Z,-8.58
2022-12-18T02:33:57.097Z,-8.61
2022-12-18T02:34:57.088Z,-8.66
2022-12-18T02:35:57.074Z,-8.73
2022-12-18T02:36:57.066Z,-8.74
2022-12-18T02:37:57.055Z,-8.82
2022-12-18T02:38:57.049Z,-8.85
2022-12-18T02:39:57.032Z,-8.85
2022-12-18T02:40:57.027Z,-8.86
2022-12-18T02:41:57.009Z,-8.91
2022-12-18T02:42:57.005Z,-8.96
2022-12-18T02:43:56.990Z,-8.96
2022-12-18T02:44:57.092Z,-8.97
2022-12-18T02:45:57.048Z,-8.97
2022-12-18T02:46:56.957Z,-8.99
2022-12-18T02:47:56.947Z,-8.96
2022-12-18T02:48:57.012Z,-8.92
2022-12-18T02:49:56.927Z,-8.88
2022-12-18T02:50:56.926Z,-8.89
2022-12-18T02:51:56.911Z,-8.88
2022-12-18T02:52:56.905Z,-8.89
2022-12-18T02:53:56.912Z,-8.91
2022-12-18T02:54:56.901Z,-8.88
2022-12-18T02:55:56.877Z,-8.86
2022-12-18T02:56:56.850Z,-8.92
2022-12-18T02:57:56.852Z,-8.94
2022-12-18T02:58:56.828Z,-8.92
2022-12-18T02:59:56.819Z,-8.97
2022-12-18T03:00:56.972Z,-8.97
2022-12-18T03:01:56.968Z,-9.00
2022-12-18T03:02:57.021Z,-8.99
2022-12-18T03:03:56.788Z,-9.03
2022-12-18T03:04:56.768Z,-9.00
2022-12-18T03:05:56.755Z,-8.99
2022-12-18T03:06:56.743Z,-9.00
2022-12-18T03:07:56.733Z,-9.03
2022-12-18T03:08:56.721Z,-9.05
2022-12-18T03:09:56.711Z,-9.05
2022-12-18T03:10:56.699Z,-9.02
2022-12-18T03:11:56.689Z,-8.97
2022-12-18T03:12:56.677Z,-9.05
2022-12-18T03:13:56.668Z,-8.99
2022-12-18T03:14:56.658Z,-8.97
2022-12-18T03:15:56.647Z,-9.02
2022-12-18T03:16:56.805Z,-9.03
2022-12-18T03:17:56.626Z,-9.06
2022-12-18T03:18:56.615Z,-9.02
2022-12-18T03:19:56.605Z,-9.06
2022-12-18T03:20:56.591Z,-9.05
2022-12-18T03:21:56.582Z,-9.07
2022-12-18T03:22:56.572Z,-9.09
2022-12-18T03:23:56.562Z,-9.10
2022-12-18T03:24:56.550Z,-9.10
2022-12-18T03:25:56.539Z,-9.12
2022-12-18T03:26:56.525Z,-9.20
2022-12-18T03:27:56.518Z,-9.27
2022-12-18T03:28:56.504Z,-9.28
2022-12-18T03:29:56.494Z,-9.26
2022-12-18T03:30:56.549Z,-9.26
2022-12-18T03:31:56.475Z,-9.27
2022-12-18T03:33:00.217Z,-9.24
2022-12-18T03:33:56.454Z,-9.27
2022-12-18T03:34:56.440Z,-9.23
2022-12-18T03:35:56.434Z,-9.18
2022-12-18T03:36:56.422Z,-9.20
2022-12-18T03:37:56.413Z,-9.16
2022-12-18T03:38:56.398Z,-9.10
2022-12-18T03:39:56.389Z,-9.09
2022-12-18T03:40:56.375Z,-9.14
2022-12-18T03:41:56.368Z,-9.16
2022-12-18T03:42:56.355Z,-9.16
2022-12-18T03:43:56.345Z,-9.14
2022-12-18T03:44:56.337Z,-9.09
2022-12-18T03:45:56.373Z,-9.10
2022-12-18T03:46:56.308Z,-9.05
2022-12-18T03:47:56.300Z,-9.06
2022-12-18T03:48:56.406Z,-9.07
2022-12-18T03:49:56.279Z,-9.03
2022-12-18T03:50:56.268Z,-9.07
2022-12-18T03:51:56.258Z,-9.12
2022-12-18T03:52:56.245Z,-9.17
2022-12-18T03:53:56.237Z,-9.24
2022-12-18T03:54:56.222Z,-9.21
2022-12-18T03:55:56.217Z,-9.26
2022-12-18T03:56:56.216Z,-9.31
2022-12-18T03:57:56.193Z,-9.30
2022-12-18T03:58:56.182Z,-9.28
2022-12-18T03:59:56.171Z,-9.23
2022-12-18T04:00:56.158Z,-9.18
2022-12-18T04:01:56.230Z,-9.21
2022-12-18T04:02:56.136Z,-9.21
2022-12-18T04:03:56.208Z,-9.23
2022-12-18T04:04:56.245Z,-9.27
2022-12-18T04:05:56.106Z,-9.31
2022-12-18T04:06:56.093Z,-9.31
2022-12-18T04:07:56.084Z,-9.36
2022-12-18T04:08:56.077Z,-9.36
2022-12-18T04:09:56.064Z,-9.43
2022-12-18T04:10:56.057Z,-9.47
2022-12-18T04:11:56.042Z,-9.54
2022-12-18T04:12:56.032Z,-9.56
2022-12-18T04:13:56.021Z,-9.56
2022-12-18T04:14:56.009Z,-9.66
2022-12-18T04:15:56.158Z,-9.68
2022-12-18T04:16:55.988Z,-9.72
2022-12-18T04:17:55.982Z,-9.70
2022-12-18T04:18:55.964Z,-9.70
2022-12-18T04:19:55.954Z,-9.68
2022-12-18T04:20:56.059Z,-9.67
2022-12-18T04:21:55.934Z,-9.68
2022-12-18T04:22:55.922Z,-9.63
2022-12-18T04:23:55.912Z,-9.66
2022-12-18T04:24:55.908Z,-9.64
2022-12-18T04:25:55.888Z,-9.67
2022-12-18T04:26:55.878Z,-9.74
2022-12-18T04:27:55.867Z,-9.78
2022-12-18T04:28:55.857Z,-9.78
2022-12-18T04:29:55.846Z,-9.84
2022-12-18T04:30:55.893Z,-9.84
2022-12-18T04:31:55.828Z,-9.90
2022-12-18T04:32:55.813Z,-9.96
2022-12-18T04:33:55.811Z,-9.95
2022-12-18T04:34:55.792Z,-9.93
2022-12-18T04:35:55.783Z,-9.88
2022-12-18T04:36:55.893Z,-9.82
2022-12-18T04:37:55.761Z,-9.82
2022-12-18T04:38:55.750Z,-9.78
2022-12-18T04:39:55.742Z,-9.74
2022-12-18T04:40:55.727Z,-9.68
2022-12-18T04:41:55.716Z,-9.67
2022-12-18T04:42:55.780Z,-9.66
2022-12-18T04:43:55.698Z,-9.60
2022-12-18T04:44:55.686Z,-9.53
2022-12-18T04:45:55.680Z,-9.47
2022-12-18T04:46:55.665Z,-9.53
2022-12-18T04:47:55.655Z,-9.47
2022-12-18T04:48:55.641Z,-9.58
2022-12-18T04:49:55.632Z,-9.60
2022-12-18T04:50:55.621Z,-9.60
2022-12-18T04:51:55.609Z,-9.67
2022-12-18T04:52:55.728Z,-9.64
2022-12-18T04:53:55.590Z,-9.61
2022-12-18T04:54:55.576Z,-9.60
2022-12-18T04:55:55.568Z,-9.57
2022-12-18T04:56:55.553Z,-9.60
2022-12-18T04:57:55.543Z,-9.61
2022-12-18T04:58:55.533Z,-9.63
2022-12-18T04:59:55.524Z,-9.70
2022-12-18T05:00:55.510Z,-9.72
2022-12-18T05:01:55.790Z,-9.79
2022-12-18T05:02:55.697Z,-9.84
2022-12-18T05:03:55.548Z,-9.87
2022-12-18T05:04:55.469Z,-9.87
2022-12-18T05:05:55.459Z,-9.93
2022-12-18T05:06:55.449Z,-9.95
2022-12-18T05:07:55.441Z,-9.93
2022-12-18T05:08:55.549Z,-9.93
2022-12-18T05:09:55.420Z,-9.88
2022-12-18T05:10:55.408Z,-9.81
2022-12-18T05:11:55.398Z,-9.78
2022-12-18T05:12:55.386Z,-9.74
2022-12-18T05:13:55.375Z,-9.68
2022-12-18T05:14:55.361Z,-9.68
2022-12-18T05:15:55.422Z,-9.68
2022-12-18T05:17:00.541Z,-9.68
2022-12-18T05:17:55.334Z,-9.67
2022-12-18T05:18:55.321Z,-9.74
2022-12-18T05:19:55.313Z,-9.72
2022-12-18T05:20:55.301Z,-9.77
2022-12-18T05:21:55.289Z,-9.79
2022-12-18T05:22:55.278Z,-9.85
2022-12-18T05:23:55.273Z,-9.87
2022-12-18T05:24:55.376Z,-9.95
2022-12-18T05:25:55.247Z,-9.96
2022-12-18T05:26:55.234Z,-9.99
2022-12-18T05:27:55.227Z,-10.00
2022-12-18T05:28:55.218Z,-10.00
2022-12-18T05:29:55.208Z,-9.99
2022-12-18T05:30:55.270Z,-10.02
2022-12-18T05:31:55.280Z,-9.99
2022-12-18T05:32:55.173Z,-9.96
2022-12-18T05:33:55.167Z,-9.95
2022-12-18T05:34:55.154Z,-9.88
2022-12-18T05:35:55.140Z,-9.82
2022-12-18T05:36:55.127Z,-9.78
2022-12-18T05:37:55.119Z,-9.72
2022-12-18T05:38:55.115Z,-9.68
2022-12-18T05:39:55.100Z,-9.67
2022-12-18T05:40:55.206Z,-9.66
2022-12-18T05:41:55.077Z,-9.67
2022-12-18T05:42:55.067Z,-9.67
2022-12-18T05:43:55.056Z,-9.68
2022-12-18T05:44:55.051Z,-9.66
2022-12-18T05:45:55.041Z,-9.67
2022-12-18T05:46:55.144Z,-9.70
2022-12-18T05:47:55.016Z,-9.77
2022-12-18T05:48:55.005Z,-9.77
2022-12-18T05:49:54.992Z,-9.81
2022-12-18T05:50:54.983Z,-9.85
2022-12-18T05:51:54.976Z,-9.82
2022-12-18T05:52:54.959Z,-9.84
2022-12-18T05:53:54.948Z,-9.87
2022-12-18T05:54:54.936Z,-9.93
2022-12-18T05:55:54.931Z,-9.95
2022-12-18T05:56:55.036Z,-9.95
2022-12-18T05:57:54.910Z,-9.99
2022-12-18T05:58:54.891Z,-9.96
2022-12-18T05:59:54.885Z,-10.02
2022-12-18T06:00:54.872Z,-10.03
2022-12-18T06:01:54.973Z,-10.03
2022-12-18T06:02:55.001Z,-10.08
2022-12-18T06:03:54.906Z,-10.08
2022-12-18T06:04:54.834Z,-10.16
2022-12-18T06:05:54.822Z,-10.14
2022-12-18T06:06:54.813Z,-10.11
2022-12-18T06:07:54.797Z,-10.13
2022-12-18T06:08:54.789Z,-10.17
2022-12-18T06:09:54.779Z,-10.13
2022-12-18T06:10:54.919Z,-10.13
2022-12-18T06:11:54.758Z,-10.14
2022-12-18T06:12:54.863Z,-10.14
2022-12-18T06:13:58.208Z,-10.13
2022-12-18T06:14:54.725Z,-10.17
2022-12-18T06:15:54.778Z,-10.16
2022-12-18T06:16:54.708Z,-10.16
2022-12-18T06:17:54.702Z,-10.17
2022-12-18T06:18:54.682Z,-10.16
2022-12-18T06:19:54.673Z,-10.17
2022-12-18T06:20:54.712Z,-10.21
2022-12-18T06:21:54.653Z,-10.21
2022-12-18T06:22:54.641Z,-10.17
2022-12-18T06:23:54.632Z,-10.13
2022-12-18T06:24:54.620Z,-10.06
2022-12-18T06:25:54.614Z,-10.06
2022-12-18T06:26:54.701Z,-10.03
2022-12-18T06:27:54.589Z,-10.02
2022-12-18T06:28:54.693Z,-10.02
2022-12-18T06:29:54.569Z,-10.00
2022-12-18T06:30:54.559Z,-10.00
2022-12-18T06:31:54.650Z,-10.00
2022-12-18T06:32:56.675Z,-10.03
2022-12-18T06:33:54.530Z,-10.08
2022-12-18T06:34:54.514Z,-10.06
2022-12-18T06:36:00.806Z,-10.11
2022-12-18T06:36:55.539Z,-10.13
2022-12-18T06:37:54.482Z,-10.13
2022-12-18T06:38:54.471Z,-10.18
2022-12-18T06:39:54.465Z,-10.17
2022-12-18T06:40:54.451Z,-10.21
2022-12-18T06:41:54.443Z,-10.21
2022-12-18T06:42:54.430Z,-10.21
2022-12-18T06:43:59.407Z,-10.20
2022-12-18T06:44:54.532Z,-10.20
2022-12-18T06:45:54.472Z,-10.21
2022-12-18T06:46:54.388Z,-10.21
2022-12-18T06:47:54.379Z,-10.23
2022-12-18T06:48:54.366Z,-10.20
2022-12-18T06:49:54.360Z,-10.21
2022-12-18T06:50:54.346Z,-10.18
2022-12-18T06:51:54.341Z,-10.21
2022-12-18T06:52:54.339Z,-10.17
2022-12-18T06:53:54.316Z,-10.24
2022-12-18T06:54:54.301Z,-10.28
2022-12-18T06:55:54.296Z,-10.24
2022-12-18T06:56:54.282Z,-10.26
2022-12-18T06:57:54.272Z,-10.31
2022-12-18T06:58:54.263Z,-10.37
2022-12-18T06:59:54.252Z,-10.39
2022-12-18T07:00:54.432Z,-10.39
2022-12-18T07:01:54.491Z,-10.38
2022-12-18T07:02:54.336Z,-10.42
2022-12-18T07:03:54.262Z,-10.44
2022-12-18T07:04:54.200Z,-10.42
2022-12-18T07:05:54.189Z,-10.38
2022-12-18T07:06:54.178Z,-10.41
2022-12-18T07:07:54.215Z,-10.42
2022-12-18T07:08:54.155Z,-10.41
2022-12-18T07:09:54.149Z,-10.42
2022-12-18T07:10:56.303Z,-10.41
2022-12-18T07:11:54.174Z,-10.42
2022-12-18T07:12:54.113Z,-10.42
2022-12-18T07:13:54.104Z,-10.39
2022-12-18T07:14:54.092Z,-10.41
2022-12-18T07:15:54.086Z,-10.37
2022-12-18T07:16:54.380Z,-10.37
2022-12-18T07:17:54.063Z,-10.38
2022-12-18T07:18:54.054Z,-10.34
2022-12-18T07:19:54.090Z,-10.32
2022-12-18T07:20:54.180Z,-10.37
2022-12-18T07:21:54.020Z,-10.38
2022-12-18T07:22:56.358Z,-10.41
2022-12-18T07:23:54.001Z,-10.37
2022-12-18T07:24:54.141Z,-10.35
2022-12-18T07:25:54.229Z,-10.34
2022-12-18T07:26:53.967Z,-10.35
2022-12-18T07:27:53.955Z,-10.37
2022-12-18T07:28:54.147Z,-10.34
2022-12-18T07:29:54.283Z,-10.37
2022-12-18T07:30:53.928Z,-10.37
2022-12-18T07:31:53.968Z,-10.35
2022-12-18T07:32:54.022Z,-10.31
2022-12-18T07:33:54.243Z,-10.31
2022-12-18T07:34:53.884Z,-10.32
2022-12-18T07:35:53.871Z,-10.26
2022-12-18T07:36:54.061Z,-10.28
2022-12-18T07:37:54.148Z,-10.29
2022-12-18T07:38:53.847Z,-10.34
2022-12-18T07:39:53.830Z,-10.32
2022-12-18T07:40:53.828Z,-10.32
2022-12-18T07:41:53.808Z,-10.31
2022-12-18T07:42:53.800Z,-10.29
2022-12-18T07:43:53.789Z,-10.29
2022-12-18T07:44:53.780Z,-10.26
2022-12-18T07:45:53.787Z,-10.28
2022-12-18T07:46:53.763Z,-10.24
2022-12-18T07:47:53.748Z,-10.21
2022-12-18T07:48:53.856Z,-10.18
2022-12-18T07:49:53.724Z,-10.14
2022-12-18T07:50:53.713Z,-10.14
2022-12-18T07:51:53.709Z,-10.14
2022-12-18T07:52:53.694Z,-10.14
2022-12-18T07:53:53.685Z,-10.11
2022-12-18T07:54:53.672Z,-10.08
2022-12-18T07:56:25.407Z,-9.99
2022-12-18T07:56:54.675Z,-9.97
2022-12-18T07:57:59.240Z,-9.99
2022-12-18T07:58:54.663Z,-9.95
2022-12-18T07:59:53.625Z,-9.92
2022-12-18T08:00:53.660Z,-9.92
2022-12-18T08:01:53.737Z,-9.88
2022-12-18T08:02:53.865Z,-9.84
2022-12-18T08:03:53.583Z,-9.88
2022-12-18T08:04:53.687Z,-9.85
2022-12-18T08:05:53.555Z,-9.84
2022-12-18T08:06:53.554Z,-9.87
2022-12-18T08:07:53.533Z,-9.79
2022-12-18T08:08:53.548Z,-9.79
2022-12-18T08:09:53.512Z,-9.77
2022-12-18T08:10:53.500Z,-9.74
2022-12-18T08:11:53.495Z,-9.68
2022-12-18T08:12:53.482Z,-9.66
2022-12-18T08:13:53.474Z,-9.63
2022-12-18T08:14:53.460Z,-9.60
2022-12-18T08:15:53.449Z,-9.60
2022-12-18T08:16:53.501Z,-9.60
2022-12-18T08:17:53.426Z,-9.60
2022-12-18T08:18:53.417Z,-9.56
2022-12-18T08:19:53.409Z,-9.56
2022-12-18T08:20:58.447Z,-9.53
2022-12-18T08:21:53.506Z,-9.49
2022-12-18T08:22:53.375Z,-9.53
2022-12-18T08:23:53.366Z,-9.49
2022-12-18T08:24:53.355Z,-9.54
2022-12-18T08:25:53.341Z,-9.53
2022-12-18T08:27:20.835Z,-9.54
2022-12-18T08:27:54.354Z,-9.49
2022-12-18T08:28:53.312Z,-9.45
2022-12-18T08:29:53.297Z,-9.41
2022-12-18T08:30:53.360Z,-9.38
2022-12-18T08:31:53.358Z,-9.38
2022-12-18T08:32:53.269Z,-9.31
2022-12-18T08:33:53.257Z,-9.27
2022-12-18T08:34:53.248Z,-9.23
2022-12-18T08:35:53.234Z,-9.23
2022-12-18T08:36:53.230Z,-9.23
2022-12-18T08:37:53.354Z,-9.20
2022-12-18T08:38:53.213Z,-9.14
2022-12-18T08:39:53.193Z,-9.05
2022-12-18T08:40:53.190Z,-9.05
2022-12-18T08:41:53.170Z,-8.99
2022-12-18T08:42:53.163Z,-8.94
2022-12-18T08:43:53.149Z,-8.88
2022-12-18T08:44:53.139Z,-8.82
2022-12-18T08:45:53.152Z,-8.73
2022-12-18T08:46:53.118Z,-8.67
2022-12-18T08:47:53.104Z,-8.63
2022-12-18T08:48:53.094Z,-8.58
2022-12-18T08:49:53.084Z,-8.58
2022-12-18T08:50:53.073Z,-8.50
2022-12-18T08:51:53.065Z,-8.50
2022-12-18T08:52:53.053Z,-8.46
2022-12-18T08:53:53.161Z,-8.45
2022-12-18T08:54:53.033Z,-8.42
2022-12-18T08:55:53.025Z,-8.37
2022-12-18T08:56:53.008Z,-8.31
2022-12-18T08:57:53.001Z,-8.25
2022-12-18T08:58:52.991Z,-8.18
2022-12-18T08:59:52.978Z,-8.11
2022-12-18T09:00:53.020Z,-8.07
2022-12-18T09:01:53.101Z,-8.03
2022-12-18T09:02:53.055Z,-7.96
2022-12-18T09:03:52.934Z,-7.91
2022-12-18T09:04:57.303Z,-7.87
2022-12-18T09:05:52.919Z,-7.76
2022-12-18T09:06:52.902Z,-7.71
2022-12-18T09:07:52.894Z,-7.64
2022-12-18T09:08:52.879Z,-7.59
2022-12-18T09:09:52.991Z,-7.57
2022-12-18T09:10:52.860Z,-7.50
2022-12-18T09:11:52.848Z,-7.39
2022-12-18T09:12:52.839Z,-7.31
2022-12-18T09:13:52.839Z,-7.21
2022-12-18T09:14:52.816Z,-7.16
2022-12-18T09:15:52.803Z,-7.00
2022-12-18T09:16:52.852Z,-6.98
2022-12-18T09:17:52.782Z,-6.87
2022-12-18T09:18:52.776Z,-6.84
2022-12-18T09:19:52.759Z,-6.85
2022-12-18T09:20:52.755Z,-6.75
2022-12-18T09:21:52.742Z,-6.69
2022-12-18T09:22:52.728Z,-6.64
2022-12-18T09:23:52.719Z,-6.59
2022-12-18T09:24:52.708Z,-6.53
2022-12-18T09:25:52.819Z,-6.47
2022-12-18T09:26:57.661Z,-6.38
2022-12-18T09:27:52.673Z,-6.29
2022-12-18T09:28:52.680Z,-6.21
2022-12-18T09:29:52.650Z,-6.14
2022-12-18T09:30:52.706Z,-6.20
2022-12-18T09:31:52.628Z,-6.17
2022-12-18T09:32:52.622Z,-6.17
2022-12-18T09:33:52.607Z,-6.10
2022-12-18T09:34:52.597Z,-6.02
2022-12-18T09:35:52.585Z,-5.91
2022-12-18T09:36:52.589Z,-5.85
2022-12-18T09:37:52.565Z,-5.84
2022-12-18T09:38:52.555Z,-5.85
2022-12-18T09:39:52.554Z,-5.80
2022-12-18T09:40:52.536Z,-5.78
2022-12-18T09:41:52.682Z,-5.75
2022-12-18T09:42:52.513Z,-5.75
2022-12-18T09:43:52.504Z,-5.62
2022-12-18T09:44:52.526Z,-5.55
2022-12-18T09:45:52.556Z,-5.48
2022-12-18T09:46:52.466Z,-5.43
2022-12-18T09:47:52.458Z,-5.41
2022-12-18T09:48:52.451Z,-5.34
2022-12-18T09:49:52.437Z,-5.35
2022-12-18T09:50:52.426Z,-5.34
2022-12-18T09:51:52.419Z,-5.31
2022-12-18T09:52:52.410Z,-5.23
2022-12-18T09:53:52.394Z,-4.74
2022-12-18T09:54:52.382Z,-4.44
2022-12-18T09:55:52.374Z,-4.51
2022-12-18T09:56:52.358Z,-4.62
2022-12-18T09:57:52.464Z,-4.69
2022-12-18T09:58:52.340Z,-4.77
2022-12-18T09:59:52.326Z,-4.85
2022-12-18T10:00:52.318Z,-4.84
2022-12-18T10:01:52.403Z,-4.70
2022-12-18T10:02:52.521Z,-4.54
2022-12-18T10:03:52.288Z,-4.31
2022-12-18T10:04:52.306Z,-4.23
2022-12-18T10:05:52.267Z,-4.34
2022-12-18T10:06:52.250Z,-4.48
2022-12-18T10:07:52.242Z,-4.52
2022-12-18T10:08:52.232Z,-4.54
2022-12-18T10:09:52.219Z,-4.59
2022-12-18T10:10:52.210Z,-4.62
2022-12-18T10:11:52.196Z,-4.59
2022-12-18T10:12:52.186Z,-4.56
2022-12-18T10:13:52.303Z,-4.52
2022-12-18T10:14:52.378Z,-4.51
2022-12-18T10:15:52.246Z,-4.52
2022-12-18T10:16:52.152Z,-4.52
2022-12-18T10:17:52.133Z,-4.56
2022-12-18T10:18:52.125Z,-4.58
2022-12-18T10:19:52.109Z,-4.58
2022-12-18T10:20:52.108Z,-4.55
2022-12-18T10:21:52.094Z,-4.54
2022-12-18T10:22:52.080Z,-4.48
2022-12-18T10:23:52.065Z,-4.52
2022-12-18T10:24:52.068Z,-4.54
2022-12-18T10:25:52.045Z,-4.52
2022-12-18T10:26:52.278Z,-4.58
2022-12-18T10:27:52.025Z,-4.58
2022-12-18T10:28:52.015Z,-4.62
2022-12-18T10:29:52.125Z,-4.62
2022-12-18T10:30:52.091Z,-4.65
2022-12-18T10:31:51.980Z,-4.63
2022-12-18T10:32:51.970Z,-4.65
2022-12-18T10:33:51.967Z,-4.63
2022-12-18T10:34:58.191Z,-4.65
2022-12-18T10:35:51.938Z,-4.62
2022-12-18T10:36:51.931Z,-4.62
2022-12-18T10:37:51.917Z,-4.63
2022-12-18T10:38:51.921Z,-4.65
2022-12-18T10:39:51.892Z,-4.62
2022-12-18T10:40:51.885Z,-4.62
2022-12-18T10:41:51.872Z,-4.63
2022-12-18T10:42:51.864Z,-4.59
2022-12-18T10:43:51.851Z,-4.58
2022-12-18T10:44:51.842Z,-4.55
2022-12-18T10:45:51.952Z,-4.55
2022-12-18T10:46:51.934Z,-4.56
2022-12-18T10:47:51.804Z,-4.55
2022-12-18T10:48:51.797Z,-4.55
2022-12-18T10:49:51.798Z,-4.58
2022-12-18T10:51:51.767Z,-4.58
2022-12-18T10:52:51.761Z,-4.49
2022-12-18T10:53:51.748Z,-4.49
2022-12-18T10:54:51.732Z,-4.51
2022-12-18T10:55:51.719Z,-4.49
2022-12-18T10:56:51.763Z,-4.48
2022-12-18T10:57:51.697Z,-4.46
2022-12-18T10:58:51.778Z,-4.41
2022-12-18T10:59:51.678Z,-4.34
2022-12-18T11:00:51.668Z,-4.30
2022-12-18T11:01:51.942Z,-4.34
2022-12-18T11:02:51.913Z,-4.33
2022-12-18T11:03:51.798Z,-4.26
2022-12-18T11:04:51.626Z,-4.22
2022-12-18T11:05:51.612Z,-4.22
2022-12-18T11:06:51.603Z,-4.20
2022-12-18T11:07:51.609Z,-4.16
2022-12-18T11:08:51.615Z,-4.16
2022-12-18T11:09:51.660Z,-4.16
2022-12-18T11:10:51.626Z,-4.20
2022-12-18T11:11:51.591Z,-4.15
2022-12-18T11:12:51.554Z,-4.09
2022-12-18T11:13:51.576Z,-4.04
2022-12-18T11:14:51.519Z,-4.02
2022-12-18T11:15:51.574Z,-4.01
2022-12-18T11:17:51.595Z,-4.01
2022-12-18T11:18:51.471Z,-3.97
2022-12-18T11:19:51.455Z,-3.97
2022-12-18T11:20:55.541Z,-3.95
2022-12-18T11:21:51.436Z,-3.92
2022-12-18T11:22:51.423Z,-3.88
2022-12-18T11:23:51.413Z,-3.84
2022-12-18T11:25:22.372Z,-3.86
2022-12-18T11:25:52.418Z,-3.88
2022-12-18T11:26:54.981Z,-3.81
2022-12-18T11:27:52.394Z,-3.77
2022-12-18T11:28:51.357Z,-3.80
2022-12-18T11:29:51.346Z,-3.83
2022-12-18T11:30:51.399Z,-3.81
2022-12-18T11:31:51.362Z,-3.72
2022-12-18T11:32:51.313Z,-3.68
2022-12-18T11:34:19.724Z,-3.64
2022-12-18T11:34:57.409Z,-3.59
2022-12-18T11:35:52.305Z,-3.58
2022-12-18T11:36:51.279Z,-3.58
2022-12-18T11:37:51.259Z,-3.55
2022-12-18T11:38:51.244Z,-3.54
2022-12-18T11:39:51.283Z,-3.51
2022-12-18T11:40:51.221Z,-3.46
2022-12-18T11:41:51.213Z,-3.37
2022-12-18T11:42:51.198Z,-3.31
2022-12-18T11:43:51.191Z,-3.23
2022-12-18T11:44:51.181Z,-3.19
2022-12-18T11:45:51.175Z,-3.15
2022-12-18T11:46:51.211Z,-3.10
2022-12-18T11:47:51.147Z,-3.10
2022-12-18T11:48:51.135Z,-3.04
2022-12-18T11:49:51.258Z,-3.00
2022-12-18T11:50:51.115Z,-3.05
2022-12-18T11:51:51.104Z,-3.05
2022-12-18T11:52:56.535Z,-3.07
2022-12-18T11:53:52.150Z,-3.05
2022-12-18T11:54:51.068Z,-3.07
2022-12-18T11:55:51.062Z,-3.05
2022-12-18T11:56:51.046Z,-3.04
2022-12-18T11:57:51.053Z,-3.02
2022-12-18T11:58:51.028Z,-3.01
2022-12-18T11:59:51.054Z,-2.97
2022-12-18T12:00:51.000Z,-2.89
2022-12-18T12:01:51.187Z,-2.89
2022-12-18T12:02:51.080Z,-2.86
2022-12-18T12:03:51.067Z,-2.87
2022-12-18T12:04:50.957Z,-2.86
2022-12-18T12:05:51.068Z,-2.86
2022-12-18T12:06:50.938Z,-2.82
2022-12-18T12:07:50.925Z,-2.77
2022-12-18T12:08:50.914Z,-2.76
2022-12-18T12:09:50.904Z,-2.80
2022-12-18T12:10:50.895Z,-2.79
2022-12-18T12:11:50.882Z,-2.77
2022-12-18T12:12:50.871Z,-2.76
2022-12-18T12:13:50.863Z,-2.74
2022-12-18T12:14:50.847Z,-2.74
2022-12-18T12:15:52.006Z,-2.71
2022-12-18T12:16:50.830Z,-2.74
2022-12-18T12:17:50.814Z,-2.72
2022-12-18T12:18:50.804Z,-2.72
2022-12-18T12:19:50.795Z,-2.68
2022-12-18T12:20:50.781Z,-2.68
2022-12-18T12:21:50.891Z,-2.66
2022-12-18T12:22:50.758Z,-2.61
2022-12-18T12:23:50.751Z,-2.64
2022-12-18T12:24:50.735Z,-2.64
2022-12-18T12:25:50.735Z,-2.61
2022-12-18T12:26:50.730Z,-2.53
2022-12-18T12:27:50.702Z,-2.55
2022-12-18T12:28:50.693Z,-2.50
2022-12-18T12:29:50.682Z,-2.50
2022-12-18T12:30:50.670Z,-2.53
2022-12-18T12:31:50.752Z,-2.50
2022-12-18T12:32:50.647Z,-2.51
2022-12-18T12:33:50.638Z,-2.58
2022-12-18T12:34:53.658Z,-2.55
2022-12-18T12:35:50.620Z,-2.53
2022-12-18T12:36:50.602Z,-2.56
2022-12-18T12:37:50.712Z,-2.56
2022-12-18T12:38:52.309Z,-2.64
2022-12-18T12:39:50.573Z,-2.66
2022-12-18T12:40:55.215Z,-2.66
2022-12-18T12:41:51.579Z,-2.69
2022-12-18T12:42:50.581Z,-2.74
2022-12-18T12:43:51.798Z,-2.74
2022-12-18T12:44:56.213Z,-2.76
2022-12-18T12:45:50.576Z,-2.76
2022-12-18T12:46:50.504Z,-2.77
2022-12-18T12:47:50.484Z,-2.74
2022-12-18T12:48:50.474Z,-2.80
2022-12-18T12:49:51.699Z,-2.76
2022-12-18T12:50:50.450Z,-2.76